sensor_id;sensor_type;location;lat;lon;timestamp;pressure;altitude;pressure_sealevel;temperature;humidity
24788;BME280;12883;52.662;5.196;2023-05-03T00:02:19;103098.97;;;8.09;100.00
24788;BME280;12883;52.662;5.196;2023-05-03T00:04:44;103101.34;;;7.27;100.00
24788;BME280;12883;52.662;5.196;2023-05-03T00:07:10;103104.47;;;7.10;100.00
24788;BME280;12883;52.662;5.196;2023-05-03T00:09:35;103102.22;;;6.95;100.00
24788;BME280;12883;52.662;5.196;2023-05-03T00:12:01;103117.31;;;6.82;100.00
24788;BME280;12883;52.662;5.196;2023-05-03T00:14:27;103116.72;;;6.78;100.00
24788;BME280;12883;52.662;5.196;2023-05-03T00:16:52;103112.72;;;6.73;100.00
24788;BME280;12883;52.662;5.196;2023-05-03T00:19:17;103071.09;;;6.43;100.00
24788;BME280;12883;52.662;5.196;2023-05-03T00:21:43;103115.72;;;6.57;100.00
24788;BME280;12883;52.662;5.196;2023-05-03T00:24:09;103112.59;;;6.63;100.00
24788;BME280;12883;52.662;5.196;2023-05-03T00:26:35;103108.72;;;6.56;100.00
24788;BME280;12883;52.662;5.196;2023-05-03T00:29:00;103124.09;;;6.51;100.00
24788;BME280;12883;52.662;5.196;2023-05-03T00:31:25;103115.69;;;6.46;100.00
24788;BME280;12883;52.662;5.196;2023-05-03T00:33:51;103104.28;;;6.46;100.00
24788;BME280;12883;52.662;5.196;2023-05-03T00:36:16;103107.06;;;6.44;100.00
24788;BME280;12883;52.662;5.196;2023-05-03T00:38:41;103102.25;;;6.38;100.00
24788;BME280;12883;52.662;5.196;2023-05-03T00:41:09;103103.75;;;6.30;100.00
24788;BME280;12883;52.662;5.196;2023-05-03T00:43:34;103057.16;;;5.96;100.00
24788;BME280;12883;52.662;5.196;2023-05-03T00:46:00;103122.88;;;6.55;100.00
24788;BME280;12883;52.662;5.196;2023-05-03T00:48:28;103126.81;;;8.45;100.00
24788;BME280;12883;52.662;5.196;2023-05-03T00:50:55;103122.09;;;9.68;100.00
24788;BME280;12883;52.662;5.196;2023-05-03T00:53:22;103118.53;;;10.45;100.00
24788;BME280;12883;52.662;5.196;2023-05-03T00:55:50;103095.81;;;10.79;100.00
24788;BME280;12883;52.662;5.196;2023-05-03T00:58:16;103107.00;;;11.36;100.00
24788;BME280;12883;52.662;5.196;2023-05-03T01:00:42;103100.66;;;9.02;100.00
24788;BME280;12883;52.662;5.196;2023-05-03T01:03:07;103092.22;;;7.09;100.00
24788;BME280;12883;52.662;5.196;2023-05-03T01:05:41;103080.56;;;6.57;100.00
24788;BME280;12883;52.662;5.196;2023-05-03T01:08:14;103109.69;;;6.55;100.00
24788;BME280;12883;52.662;5.196;2023-05-03T01:11:00;103102.00;;;6.41;100.00
24788;BME280;12883;52.662;5.196;2023-05-03T01:13:42;103103.91;;;6.39;100.00
24788;BME280;12883;52.662;5.196;2023-05-03T01:16:17;103091.19;;;6.33;100.00
24788;BME280;12883;52.662;5.196;2023-05-03T01:18:45;103105.13;;;6.46;100.00
24788;BME280;12883;52.662;5.196;2023-05-03T01:21:15;103098.41;;;6.42;100.00
24788;BME280;12883;52.662;5.196;2023-05-03T01:23:53;103026.41;;;5.96;100.00
24788;BME280;12883;52.662;5.196;2023-05-03T01:26:27;103104.03;;;6.38;100.00
24788;BME280;12883;52.662;5.196;2023-05-03T01:28:53;103099.13;;;6.44;100.00
24788;BME280;12883;52.662;5.196;2023-05-03T01:31:38;103057.56;;;6.02;100.00
24788;BME280;12883;52.662;5.196;2023-05-03T01:36:44;103093.13;;;6.42;100.00
24788;BME280;12883;52.662;5.196;2023-05-03T01:39:17;103098.41;;;6.42;100.00
24788;BME280;12883;52.662;5.196;2023-05-03T01:41:44;103098.41;;;6.42;100.00
24788;BME280;12883;52.662;5.196;2023-05-03T01:44:10;103044.56;;;6.23;100.00
24788;BME280;12883;52.662;5.196;2023-05-03T01:46:43;103100.63;;;7.25;100.00
24788;BME280;12883;52.662;5.196;2023-05-03T01:49:09;103055.38;;;8.65;100.00
24788;BME280;12883;52.662;5.196;2023-05-03T01:51:34;103093.38;;;10.01;100.00
24788;BME280;12883;52.662;5.196;2023-05-03T01:54:00;103093.19;;;10.69;100.00
24788;BME280;12883;52.662;5.196;2023-05-03T01:56:25;103041.00;;;10.78;100.00
24788;BME280;12883;52.662;5.196;2023-05-03T01:58:51;103092.69;;;11.47;100.00
24788;BME280;12883;52.662;5.196;2023-05-03T02:01:16;103071.97;;;8.47;100.00
24788;BME280;12883;52.662;5.196;2023-05-03T02:03:41;103071.22;;;7.30;100.00
24788;BME280;12883;52.662;5.196;2023-05-03T02:06:07;103064.41;;;6.94;100.00
24788;BME280;12883;52.662;5.196;2023-05-03T02:08:32;103063.69;;;6.81;100.00
24788;BME280;12883;52.662;5.196;2023-05-03T02:10:57;103049.06;;;6.66;100.00
24788;BME280;12883;52.662;5.196;2023-05-03T02:13:23;103031.56;;;6.65;100.00
24788;BME280;12883;52.662;5.196;2023-05-03T02:15:48;103052.06;;;6.84;100.00
24788;BME280;12883;52.662;5.196;2023-05-03T02:18:14;102972.34;;;6.36;100.00
24788;BME280;12883;52.662;5.196;2023-05-03T02:20:44;103037.56;;;6.78;100.00
24788;BME280;12883;52.662;5.196;2023-05-03T02:23:09;103036.81;;;6.76;100.00
24788;BME280;12883;52.662;5.196;2023-05-03T02:25:34;103038.28;;;6.91;100.00
24788;BME280;12883;52.662;5.196;2023-05-03T02:28:00;103035.16;;;6.86;100.00
24788;BME280;12883;52.662;5.196;2023-05-03T02:30:25;102999.44;;;6.71;100.00
24788;BME280;12883;52.662;5.196;2023-05-03T02:32:50;102966.47;;;6.55;100.00
24788;BME280;12883;52.662;5.196;2023-05-03T02:35:16;103026.38;;;6.97;100.00
24788;BME280;12883;52.662;5.196;2023-05-03T02:37:41;103028.19;;;6.96;100.00
24788;BME280;12883;52.662;5.196;2023-05-03T02:40:08;103014.59;;;7.01;100.00
24788;BME280;12883;52.662;5.196;2023-05-03T02:42:34;103029.00;;;7.08;100.00
24788;BME280;12883;52.662;5.196;2023-05-03T02:44:59;103043.31;;;7.05;100.00
24788;BME280;12883;52.662;5.196;2023-05-03T02:47:24;103057.28;;;8.33;100.00
24788;BME280;12883;52.662;5.196;2023-05-03T02:49:50;103053.16;;;9.77;100.00
24788;BME280;12883;52.662;5.196;2023-05-03T02:52:15;103023.75;;;10.55;100.00
24788;BME280;12883;52.662;5.196;2023-05-03T02:54:41;103030.78;;;11.10;100.00
24788;BME280;12883;52.662;5.196;2023-05-03T02:57:06;103070.25;;;11.59;100.00
24788;BME280;12883;52.662;5.196;2023-05-03T02:59:31;103018.66;;;11.69;98.32
24788;BME280;12883;52.662;5.196;2023-05-03T03:01:57;103064.59;;;8.09;100.00
24788;BME280;12883;52.662;5.196;2023-05-03T03:04:24;103055.75;;;7.14;100.00
24788;BME280;12883;52.662;5.196;2023-05-03T03:06:49;103069.44;;;6.97;100.00
24788;BME280;12883;52.662;5.196;2023-05-03T03:09:17;103057.22;;;6.74;100.00
24788;BME280;12883;52.662;5.196;2023-05-03T03:11:43;103072.78;;;6.77;100.00
24788;BME280;12883;52.662;5.196;2023-05-03T03:14:08;103081.53;;;6.67;100.00
24788;BME280;12883;52.662;5.196;2023-05-03T03:16:33;103066.53;;;6.56;100.00
24788;BME280;12883;52.662;5.196;2023-05-03T03:18:59;103039.91;;;6.37;100.00
24788;BME280;12883;52.662;5.196;2023-05-03T03:21:24;103073.50;;;6.57;100.00
24788;BME280;12883;52.662;5.196;2023-05-03T03:23:49;103080.22;;;6.50;100.00
24788;BME280;12883;52.662;5.196;2023-05-03T03:26:15;103080.44;;;6.47;100.00
24788;BME280;12883;52.662;5.196;2023-05-03T03:28:40;103078.16;;;6.43;100.00
24788;BME280;12883;52.662;5.196;2023-05-03T03:31:06;103064.47;;;6.38;100.00
24788;BME280;12883;52.662;5.196;2023-05-03T03:33:31;103080.53;;;6.35;100.00
24788;BME280;12883;52.662;5.196;2023-05-03T03:35:56;103081.97;;;6.28;100.00
24788;BME280;12883;52.662;5.196;2023-05-03T03:38:21;103078.72;;;6.24;100.00
24788;BME280;12883;52.662;5.196;2023-05-03T03:40:47;103081.25;;;6.26;100.00
24788;BME280;12883;52.662;5.196;2023-05-03T03:43:12;103015.53;;;5.77;100.00
24788;BME280;12883;52.662;5.196;2023-05-03T03:45:38;103102.53;;;6.23;100.00
24788;BME280;12883;52.662;5.196;2023-05-03T03:48:03;103098.75;;;8.01;100.00
24788;BME280;12883;52.662;5.196;2023-05-03T03:50:28;103095.81;;;9.46;100.00
24788;BME280;12883;52.662;5.196;2023-05-03T03:52:54;103088.91;;;10.21;100.00
24788;BME280;12883;52.662;5.196;2023-05-03T03:55:19;103090.78;;;10.76;100.00
24788;BME280;12883;52.662;5.196;2023-05-03T03:57:45;103086.72;;;11.08;100.00
24788;BME280;12883;52.662;5.196;2023-05-03T04:00:10;103070.34;;;9.92;100.00
24788;BME280;12883;52.662;5.196;2023-05-03T04:02:36;103097.03;;;7.04;100.00
24788;BME280;12883;52.662;5.196;2023-05-03T04:05:01;103095.34;;;6.59;100.00
24788;BME280;12883;52.662;5.196;2023-05-03T04:07:28;103086.88;;;6.32;100.00
24788;BME280;12883;52.662;5.196;2023-05-03T04:09:53;103085.28;;;6.19;100.00
24788;BME280;12883;52.662;5.196;2023-05-03T04:12:20;103092.97;;;6.22;100.00
24788;BME280;12883;52.662;5.196;2023-05-03T04:14:46;103047.03;;;6.02;100.00
24788;BME280;12883;52.662;5.196;2023-05-03T04:17:11;103094.53;;;6.24;100.00
24788;BME280;12883;52.662;5.196;2023-05-03T04:19:37;103031.13;;;5.80;100.00
24788;BME280;12883;52.662;5.196;2023-05-03T04:22:03;103086.38;;;6.16;100.00
24788;BME280;12883;52.662;5.196;2023-05-03T04:24:28;103103.41;;;6.23;100.00
24788;BME280;12883;52.662;5.196;2023-05-03T04:26:55;103096.44;;;6.22;100.00
24788;BME280;12883;52.662;5.196;2023-05-03T04:29:20;103096.72;;;6.30;100.00
24788;BME280;12883;52.662;5.196;2023-05-03T04:31:45;103100.31;;;6.29;100.00
24788;BME280;12883;52.662;5.196;2023-05-03T04:34:11;103104.25;;;6.35;100.00
24788;BME280;12883;52.662;5.196;2023-05-03T04:36:39;103098.41;;;6.42;100.00
24788;BME280;12883;52.662;5.196;2023-05-03T04:39:06;103061.69;;;6.28;100.00
24788;BME280;12883;52.662;5.196;2023-05-03T04:41:32;103097.56;;;6.53;100.00
24788;BME280;12883;52.662;5.196;2023-05-03T04:43:58;103107.31;;;6.63;100.00
24788;BME280;12883;52.662;5.196;2023-05-03T04:46:23;103124.03;;;7.08;100.00
24788;BME280;12883;52.662;5.196;2023-05-03T04:48:49;103076.63;;;8.54;100.00
24788;BME280;12883;52.662;5.196;2023-05-03T04:51:14;103099.91;;;9.88;100.00
24788;BME280;12883;52.662;5.196;2023-05-03T04:53:39;103113.41;;;10.80;100.00
24788;BME280;12883;52.662;5.196;2023-05-03T04:56:05;103123.50;;;11.13;100.00
24788;BME280;12883;52.662;5.196;2023-05-03T04:58:31;103126.88;;;11.42;100.00
24788;BME280;12883;52.662;5.196;2023-05-03T05:00:57;103053.44;;;8.67;100.00
24788;BME280;12883;52.662;5.196;2023-05-03T05:03:22;103112.31;;;7.65;100.00
24788;BME280;12883;52.662;5.196;2023-05-03T05:05:47;103106.63;;;7.27;100.00
24788;BME280;12883;52.662;5.196;2023-05-03T05:08:13;103108.91;;;7.32;100.00
24788;BME280;12883;52.662;5.196;2023-05-03T05:10:41;103106.63;;;7.27;100.00
24788;BME280;12883;52.662;5.196;2023-05-03T05:13:07;103116.94;;;7.30;100.00
24788;BME280;12883;52.662;5.196;2023-05-03T05:15:32;103114.66;;;7.37;100.00
24788;BME280;12883;52.662;5.196;2023-05-03T05:17:58;103110.56;;;7.44;100.00
24788;BME280;12883;52.662;5.196;2023-05-03T05:20:23;103081.66;;;7.31;100.00
24788;BME280;12883;52.662;5.196;2023-05-03T05:22:49;103078.78;;;7.34;100.00
24788;BME280;12883;52.662;5.196;2023-05-03T05:25:14;103094.72;;;7.44;100.00
24788;BME280;12883;52.662;5.196;2023-05-03T05:27:39;103103.81;;;7.62;100.00
24788;BME280;12883;52.662;5.196;2023-05-03T05:30:07;103108.72;;;7.66;100.00
24788;BME280;12883;52.662;5.196;2023-05-03T05:32:33;103107.59;;;7.80;100.00
24788;BME280;12883;52.662;5.196;2023-05-03T05:34:58;103110.19;;;7.91;100.00
24788;BME280;12883;52.662;5.196;2023-05-03T05:37:24;103111.81;;;8.14;100.00
24788;BME280;12883;52.662;5.196;2023-05-03T05:39:50;103112.16;;;8.20;100.00
24788;BME280;12883;52.662;5.196;2023-05-03T05:42:15;103111.25;;;8.31;100.00
24788;BME280;12883;52.662;5.196;2023-05-03T05:44:41;103103.41;;;8.40;100.00
24788;BME280;12883;52.662;5.196;2023-05-03T05:47:08;103131.38;;;9.53;100.00
24788;BME280;12883;52.662;5.196;2023-05-03T05:49:33;103127.88;;;11.04;100.00
24788;BME280;12883;52.662;5.196;2023-05-03T05:51:59;103134.06;;;12.03;100.00
24788;BME280;12883;52.662;5.196;2023-05-03T05:54:24;103138.34;;;12.57;100.00
24788;BME280;12883;52.662;5.196;2023-05-03T05:56:49;103144.19;;;13.03;100.00
24788;BME280;12883;52.662;5.196;2023-05-03T05:59:15;103148.16;;;13.33;99.37
24788;BME280;12883;52.662;5.196;2023-05-03T06:01:41;103131.91;;;10.05;100.00
24788;BME280;12883;52.662;5.196;2023-05-03T06:04:14;103132.75;;;9.38;100.00
24788;BME280;12883;52.662;5.196;2023-05-03T06:06:39;103135.06;;;9.22;100.00
24788;BME280;12883;52.662;5.196;2023-05-03T06:09:05;103128.63;;;9.15;100.00
24788;BME280;12883;52.662;5.196;2023-05-03T06:11:31;103126.13;;;9.23;100.00
24788;BME280;12883;52.662;5.196;2023-05-03T06:13:56;103126.72;;;9.27;100.00
24788;BME280;12883;52.662;5.196;2023-05-03T06:16:23;103127.00;;;9.33;100.00
24788;BME280;12883;52.662;5.196;2023-05-03T06:18:49;103119.91;;;9.34;100.00
24788;BME280;12883;52.662;5.196;2023-05-03T06:21:14;103124.91;;;9.37;100.00
24788;BME280;12883;52.662;5.196;2023-05-03T06:23:40;103103.44;;;9.30;100.00
24788;BME280;12883;52.662;5.196;2023-05-03T06:26:06;103104.13;;;9.32;100.00
24788;BME280;12883;52.662;5.196;2023-05-03T06:28:31;103129.19;;;9.58;100.00
24788;BME280;12883;52.662;5.196;2023-05-03T06:30:56;103107.53;;;9.53;100.00
24788;BME280;12883;52.662;5.196;2023-05-03T06:33:22;103123.22;;;9.65;100.00
24788;BME280;12883;52.662;5.196;2023-05-03T06:35:47;103127.41;;;9.68;100.00
24788;BME280;12883;52.662;5.196;2023-05-03T06:38:13;103125.13;;;9.63;100.00
24788;BME280;12883;52.662;5.196;2023-05-03T06:40:38;103122.94;;;9.78;100.00
24788;BME280;12883;52.662;5.196;2023-05-03T06:43:06;103105.06;;;9.80;100.00
24788;BME280;12883;52.662;5.196;2023-05-03T06:45:31;103093.31;;;9.63;100.00
24788;BME280;12883;52.662;5.196;2023-05-03T06:47:56;103154.91;;;11.63;100.00
24788;BME280;12883;52.662;5.196;2023-05-03T06:50:22;103153.50;;;12.82;92.22
24788;BME280;12883;52.662;5.196;2023-05-03T06:52:48;103134.97;;;13.73;83.55
24788;BME280;12883;52.662;5.196;2023-05-03T06:55:14;103118.69;;;13.92;79.53
24788;BME280;12883;52.662;5.196;2023-05-03T06:57:40;103130.78;;;14.52;77.17
24788;BME280;12883;52.662;5.196;2023-05-03T07:00:07;103106.78;;;13.78;72.01
24788;BME280;12883;52.662;5.196;2023-05-03T07:02:33;103080.59;;;10.71;89.23
24788;BME280;12883;52.662;5.196;2023-05-03T07:04:58;103107.91;;;10.45;99.40
24788;BME280;12883;52.662;5.196;2023-05-03T07:07:24;103106.50;;;10.41;100.00
24788;BME280;12883;52.662;5.196;2023-05-03T07:09:49;103103.72;;;10.33;100.00
24788;BME280;12883;52.662;5.196;2023-05-03T07:12:14;103101.91;;;10.33;100.00
24788;BME280;12883;52.662;5.196;2023-05-03T07:14:43;103104.53;;;10.43;100.00
24788;BME280;12883;52.662;5.196;2023-05-03T07:17:08;103065.16;;;10.29;100.00
24788;BME280;12883;52.662;5.196;2023-05-03T07:19:34;103088.59;;;10.52;100.00
24788;BME280;12883;52.662;5.196;2023-05-03T07:22:01;103106.72;;;10.66;100.00
24788;BME280;12883;52.662;5.196;2023-05-03T07:24:27;103098.94;;;10.65;100.00
24788;BME280;12883;52.662;5.196;2023-05-03T07:26:53;103062.63;;;10.46;100.00
24788;BME280;12883;52.662;5.196;2023-05-03T07:29:18;103092.59;;;10.75;100.00
24788;BME280;12883;52.662;5.196;2023-05-03T07:31:43;103098.59;;;10.77;100.00
24788;BME280;12883;52.662;5.196;2023-05-03T07:34:09;103095.81;;;10.79;100.00
24788;BME280;12883;52.662;5.196;2023-05-03T07:36:35;103097.19;;;10.83;99.04
24788;BME280;12883;52.662;5.196;2023-05-03T07:39:00;103102.06;;;10.87;96.77
24788;BME280;12883;52.662;5.196;2023-05-03T07:41:25;103096.97;;;11.03;98.80
24788;BME280;12883;52.662;5.196;2023-05-03T07:43:51;103099.88;;;11.10;98.19
24788;BME280;12883;52.662;5.196;2023-05-03T07:46:16;103111.00;;;11.50;97.94
24788;BME280;12883;52.662;5.196;2023-05-03T07:48:42;103124.28;;;13.23;87.43
24788;BME280;12883;52.662;5.196;2023-05-03T07:51:07;103112.41;;;14.33;78.42
24788;BME280;12883;52.662;5.196;2023-05-03T07:53:32;103117.28;;;14.99;73.52
24788;BME280;12883;52.662;5.196;2023-05-03T07:55:59;103100.31;;;15.39;69.98
24788;BME280;12883;52.662;5.196;2023-05-03T07:58:25;103116.31;;;15.77;69.01
24788;BME280;12883;52.662;5.196;2023-05-03T08:00:50;103108.41;;;13.55;69.72
24788;BME280;12883;52.662;5.196;2023-05-03T08:03:16;103107.97;;;12.07;78.44
24788;BME280;12883;52.662;5.196;2023-05-03T08:05:42;103101.16;;;11.60;83.14
24788;BME280;12883;52.662;5.196;2023-05-03T08:08:08;103093.19;;;11.60;86.51
24788;BME280;12883;52.662;5.196;2023-05-03T08:10:34;103074.00;;;11.56;87.83
24788;BME280;12883;52.662;5.196;2023-05-03T08:13:03;103099.31;;;11.70;86.37
24788;BME280;12883;52.662;5.196;2023-05-03T08:15:29;103081.56;;;11.61;86.32
24788;BME280;12883;52.662;5.196;2023-05-03T08:17:54;103096.84;;;11.59;87.20
24788;BME280;12883;52.662;5.196;2023-05-03T08:20:20;103090.25;;;11.36;84.53
24788;BME280;12883;52.662;5.196;2023-05-03T08:22:45;103104.75;;;11.41;87.13
24788;BME280;12883;52.662;5.196;2023-05-03T08:25:11;103110.47;;;11.46;86.21
24788;BME280;12883;52.662;5.196;2023-05-03T08:27:37;103083.84;;;11.29;84.14
24788;BME280;12883;52.662;5.196;2023-05-03T08:30:03;103116.78;;;11.45;86.11
24788;BME280;12883;52.662;5.196;2023-05-03T08:32:29;103108.03;;;11.53;89.69
24788;BME280;12883;52.662;5.196;2023-05-03T08:34:55;103121.94;;;11.74;88.69
24788;BME280;12883;52.662;5.196;2023-05-03T08:37:21;103141.53;;;11.73;85.80
24788;BME280;12883;52.662;5.196;2023-05-03T08:39:46;103135.25;;;11.91;86.97
24788;BME280;12883;52.662;5.196;2023-05-03T08:42:12;103120.41;;;11.89;86.06
24788;BME280;12883;52.662;5.196;2023-05-03T08:44:43;103125.84;;;11.79;85.38
24788;BME280;12883;52.662;5.196;2023-05-03T08:47:09;103151.84;;;12.81;81.05
24788;BME280;12883;52.662;5.196;2023-05-03T08:49:36;103141.22;;;14.13;73.76
24788;BME280;12883;52.662;5.196;2023-05-03T08:52:04;103141.16;;;15.17;69.33
24788;BME280;12883;52.662;5.196;2023-05-03T08:54:30;103136.34;;;15.59;65.12
24788;BME280;12883;52.662;5.196;2023-05-03T08:56:55;103140.56;;;16.06;63.60
24788;BME280;12883;52.662;5.196;2023-05-03T08:59:21;103139.50;;;16.15;62.21
24788;BME280;12883;52.662;5.196;2023-05-03T09:01:46;103114.50;;;12.98;72.00
24788;BME280;12883;52.662;5.196;2023-05-03T09:04:12;103127.44;;;12.25;77.19
24788;BME280;12883;52.662;5.196;2023-05-03T09:06:38;103127.28;;;12.09;81.82
24788;BME280;12883;52.662;5.196;2023-05-03T09:09:06;103130.03;;;11.99;79.44
24788;BME280;12883;52.662;5.196;2023-05-03T09:11:33;103118.47;;;11.91;81.50
24788;BME280;12883;52.662;5.196;2023-05-03T09:14:17;103097.84;;;11.75;83.43
24788;BME280;12883;52.662;5.196;2023-05-03T09:16:44;103111.84;;;11.95;81.75
24788;BME280;12883;52.662;5.196;2023-05-03T09:19:11;103109.09;;;12.04;85.79
24788;BME280;12883;52.662;5.196;2023-05-03T09:21:38;103118.75;;;12.05;85.40
24788;BME280;12883;52.662;5.196;2023-05-03T09:24:14;103045.88;;;11.63;83.38
24788;BME280;12883;52.662;5.196;2023-05-03T09:26:40;103105.00;;;11.92;84.85
24788;BME280;12883;52.662;5.196;2023-05-03T09:29:07;103105.09;;;12.00;83.96
24788;BME280;12883;52.662;5.196;2023-05-03T09:31:34;103106.75;;;12.19;85.02
24788;BME280;12883;52.662;5.196;2023-05-03T09:34:00;103113.53;;;12.13;82.33
24788;BME280;12883;52.662;5.196;2023-05-03T09:36:26;103095.19;;;12.10;81.31
24788;BME280;12883;52.662;5.196;2023-05-03T09:38:52;103109.16;;;12.30;83.85
24788;BME280;12883;52.662;5.196;2023-05-03T09:41:28;103111.38;;;12.34;84.89
24788;BME280;12883;52.662;5.196;2023-05-03T09:43:54;103128.19;;;12.35;79.77
24788;BME280;12883;52.662;5.196;2023-05-03T09:46:21;103138.16;;;12.76;79.04
24788;BME280;12883;52.662;5.196;2023-05-03T09:48:49;103094.03;;;14.22;72.47
24788;BME280;12883;52.662;5.196;2023-05-03T09:51:15;103133.69;;;15.51;67.27
24788;BME280;12883;52.662;5.196;2023-05-03T09:53:40;103124.72;;;15.97;64.54
24788;BME280;12883;52.662;5.196;2023-05-03T09:56:08;103099.06;;;16.25;63.20
24788;BME280;12883;52.662;5.196;2023-05-03T09:58:37;103125.28;;;16.74;62.05
24788;BME280;12883;52.662;5.196;2023-05-03T10:01:02;103070.13;;;13.96;66.94
24788;BME280;12883;52.662;5.196;2023-05-03T10:03:33;103109.88;;;12.83;72.44
24788;BME280;12883;52.662;5.196;2023-05-03T10:06:02;103109.84;;;12.75;77.80
24788;BME280;12883;52.662;5.196;2023-05-03T10:08:33;103116.88;;;12.58;76.08
24788;BME280;12883;52.662;5.196;2023-05-03T10:11:03;103107.84;;;12.51;78.84
24788;BME280;12883;52.662;5.196;2023-05-03T10:13:29;103102.41;;;12.61;78.70
24788;BME280;12883;52.662;5.196;2023-05-03T10:15:59;103122.25;;;12.66;77.34
24788;BME280;12883;52.662;5.196;2023-05-03T10:18:30;103109.56;;;12.60;81.91
24788;BME280;12883;52.662;5.196;2023-05-03T10:21:10;103072.84;;;12.46;80.06
24788;BME280;12883;52.662;5.196;2023-05-03T10:24:14;103120.22;;;12.60;77.92
24788;BME280;12883;52.662;5.196;2023-05-03T10:26:44;103101.31;;;12.71;81.71
24788;BME280;12883;52.662;5.196;2023-05-03T10:32:02;103101.38;;;12.79;80.16
24788;BME280;12883;52.662;5.196;2023-05-03T10:34:32;103111.22;;;12.79;78.10
24788;BME280;12883;52.662;5.196;2023-05-03T10:37:07;103101.00;;;12.49;76.71
24788;BME280;12883;52.662;5.196;2023-05-03T10:39:32;103108.41;;;12.63;77.33
24788;BME280;12883;52.662;5.196;2023-05-03T10:42:02;103103.84;;;12.73;78.98
24788;BME280;12883;52.662;5.196;2023-05-03T10:44:37;103109.16;;;12.73;76.48
24788;BME280;12883;52.662;5.196;2023-05-03T10:47:13;103112.94;;;13.63;74.16
24788;BME280;12883;52.662;5.196;2023-05-03T10:49:38;103118.25;;;15.22;68.13
24788;BME280;12883;52.662;5.196;2023-05-03T10:55:09;103106.50;;;16.89;61.68
24788;BME280;12883;52.662;5.196;2023-05-03T10:57:37;103105.13;;;17.36;62.18
24788;BME280;12883;52.662;5.196;2023-05-03T11:03:03;103074.94;;;13.69;69.07
24788;BME280;12883;52.662;5.196;2023-05-03T11:05:32;103068.28;;;13.23;73.65
24788;BME280;12883;52.662;5.196;2023-05-03T11:10:39;103065.59;;;13.15;76.00
24788;BME280;12883;52.662;5.196;2023-05-03T11:13:06;103074.13;;;13.27;76.23
24788;BME280;12883;52.662;5.196;2023-05-03T11:15:32;103057.78;;;13.14;75.12
24788;BME280;12883;52.662;5.196;2023-05-03T11:17:58;103059.78;;;13.20;73.78
24788;BME280;12883;52.662;5.196;2023-05-03T11:20:23;103074.81;;;13.21;73.26
24788;BME280;12883;52.662;5.196;2023-05-03T11:22:49;103067.94;;;13.10;72.42
24788;BME280;12883;52.662;5.196;2023-05-03T11:25:15;103051.56;;;13.05;74.22
24788;BME280;12883;52.662;5.196;2023-05-03T11:27:41;103071.66;;;13.25;75.47
24788;BME280;12883;52.662;5.196;2023-05-03T11:30:07;103064.31;;;13.27;75.07
24788;BME280;12883;52.662;5.196;2023-05-03T11:32:34;103050.31;;;13.17;74.55
24788;BME280;12883;52.662;5.196;2023-05-03T11:35:01;103041.00;;;13.29;76.34
24788;BME280;12883;52.662;5.196;2023-05-03T11:37:30;103049.81;;;13.22;72.46
24788;BME280;12883;52.662;5.196;2023-05-03T11:39:56;103053.59;;;13.11;72.86
24788;BME280;12883;52.662;5.196;2023-05-03T11:42:21;103041.47;;;13.17;73.07
24788;BME280;12883;52.662;5.196;2023-05-03T11:44:49;103044.66;;;13.28;73.04
24788;BME280;12883;52.662;5.196;2023-05-03T11:47:14;103062.97;;;14.37;71.54
24788;BME280;12883;52.662;5.196;2023-05-03T11:49:39;103059.91;;;15.79;65.45
24788;BME280;12883;52.662;5.196;2023-05-03T11:52:05;103063.03;;;16.79;62.14
24788;BME280;12883;52.662;5.196;2023-05-03T11:54:30;103062.63;;;17.25;59.59
24788;BME280;12883;52.662;5.196;2023-05-03T11:56:57;103050.16;;;17.68;58.65
24788;BME280;12883;52.662;5.196;2023-05-03T11:59:38;103041.25;;;17.88;57.60
24788;BME280;12883;52.662;5.196;2023-05-03T12:02:05;103016.41;;;14.31;64.65
24788;BME280;12883;52.662;5.196;2023-05-03T12:04:31;103021.91;;;13.66;68.64
24788;BME280;12883;52.662;5.196;2023-05-03T12:06:57;102962.66;;;13.22;71.51
24788;BME280;12883;52.662;5.196;2023-05-03T12:09:24;102990.03;;;13.40;71.52
24788;BME280;12883;52.662;5.196;2023-05-03T12:11:50;103011.22;;;13.42;72.30
24788;BME280;12883;52.662;5.196;2023-05-03T12:14:15;103019.88;;;13.68;74.65
24788;BME280;12883;52.662;5.196;2023-05-03T12:16:48;103016.19;;;13.45;70.73
24788;BME280;12883;52.662;5.196;2023-05-03T12:19:28;103020.88;;;13.43;72.69
24788;BME280;12883;52.662;5.196;2023-05-03T12:21:53;103007.53;;;13.51;74.80
24788;BME280;12883;52.662;5.196;2023-05-03T12:24:19;103005.88;;;13.66;73.12
24788;BME280;12883;52.662;5.196;2023-05-03T12:26:50;103005.69;;;13.43;72.34
24788;BME280;12883;52.662;5.196;2023-05-03T12:29:15;102924.41;;;12.90;72.14
24788;BME280;12883;52.662;5.196;2023-05-03T12:31:41;102994.22;;;13.59;73.88
24788;BME280;12883;52.662;5.196;2023-05-03T12:34:07;103006.53;;;13.52;72.78
24788;BME280;12883;52.662;5.196;2023-05-03T12:36:33;103013.53;;;13.45;74.90
24788;BME280;12883;52.662;5.196;2023-05-03T12:39:01;102985.19;;;13.52;76.17
24788;BME280;12883;52.662;5.196;2023-05-03T12:41:27;102993.41;;;13.66;74.98
24788;BME280;12883;52.662;5.196;2023-05-03T12:43:56;102989.38;;;13.62;74.00
24788;BME280;12883;52.662;5.196;2023-05-03T12:46:22;103018.75;;;14.18;74.23
24788;BME280;12883;52.662;5.196;2023-05-03T12:48:48;103004.16;;;15.82;68.76
24788;BME280;12883;52.662;5.196;2023-05-03T12:51:13;103007.59;;;17.00;64.19
24788;BME280;12883;52.662;5.196;2023-05-03T12:53:39;103005.97;;;17.49;61.38
24788;BME280;12883;52.662;5.196;2023-05-03T12:56:05;102996.56;;;17.81;59.53
24788;BME280;12883;52.662;5.196;2023-05-03T12:58:30;102989.28;;;18.02;59.73
24788;BME280;12883;52.662;5.196;2023-05-03T13:00:56;102974.69;;;15.68;61.56